Time;durP1;ratioP1;P1;durP2;ratioP2;P2;SDS_P1;SDS_P2;PMS_P1;PMS_P2;Temp;Humidity;BMP_temperature;BMP_pressure;BME280_temperature;BME280_humidity;BME280_pressure;Samples;Min_cycle;Max_cycle;Signal;HPM_P1;HPM_P2
2021/11/30 00:00:34;;;;;;;16.80;10.40;;;;;;;1.96;84.04;98602.65;126671;1312;108924;-77
2021/11/30 00:03:52;;;;;;;16.40;9.40;;;;;;;1.94;84.34;98607.42;126739;1312;108782;-77
2021/11/30 00:06:59;;;;;;;17.10;10.30;;;;;;;1.88;84.06;98610.90;126605;1312;108667;-77
2021/11/30 00:13:31;;;;;;;17.30;9.80;;;;;;;1.81;84.33;98622.58;126895;1311;106631;-78
2021/11/30 00:16:37;;;;;;;15.80;9.20;;;;;;;1.80;84.19;98627.79;127040;1312;109001;-80
2021/11/30 00:19:43;;;;;;;14.50;9.40;;;;;;;1.77;83.68;98630.48;127046;1312;108789;-78
2021/11/30 00:22:49;;;;;;;13.90;8.90;;;;;;;1.76;83.99;98633.40;127150;1312;107500;-76
2021/11/30 00:25:54;;;;;;;15.80;9.30;;;;;;;1.80;83.95;98642.33;127089;1312;108530;-77
2021/11/30 00:28:59;;;;;;;14.90;9.00;;;;;;;1.76;83.77;98648.60;127037;1311;108915;-76
2021/11/30 00:32:06;;;;;;;14.20;8.60;;;;;;;1.74;83.98;98654.20;127054;1312;107741;-77
2021/11/30 00:35:12;;;;;;;14.30;8.20;;;;;;;1.73;83.64;98655.52;127088;1308;108761;-77
2021/11/30 00:38:18;;;;;;;12.10;7.90;;;;;;;1.72;83.71;98660.42;126958;1312;108756;-77
2021/11/30 00:41:24;;;;;;;15.00;8.50;;;;;;;1.74;83.35;98673.92;126572;1311;108761;-77
2021/11/30 00:44:30;;;;;;;12.70;8.10;;;;;;;1.69;83.51;98675.17;126728;1313;108072;-77
2021/11/30 00:47:43;;;;;;;14.00;8.20;;;;;;;1.66;83.68;98675.98;126690;1306;110029;-77
2021/11/30 00:50:52;;;;;;;12.60;7.80;;;;;;;1.67;83.57;98685.03;126898;1312;108734;-77
2021/11/30 00:53:57;;;;;;;13.50;7.40;;;;;;;1.67;83.60;98688.50;126972;1307;108730;-77
2021/11/30 00:57:03;;;;;;;12.60;7.40;;;;;;;1.72;83.72;98691.21;126614;1306;107771;-75
2021/11/30 01:00:12;;;;;;;12.80;7.50;;;;;;;1.78;83.47;98691.42;126634;1311;108803;-77
2021/11/30 01:03:17;;;;;;;13.90;8.20;;;;;;;1.73;82.82;98692.02;126854;1308;108916;-78
2021/11/30 01:06:23;;;;;;;16.60;8.40;;;;;;;1.64;83.14;98698.64;126931;1310;109293;-76
2021/11/30 01:09:28;;;;;;;11.10;6.60;;;;;;;1.60;83.24;98697.94;126984;1306;108699;-76
2021/11/30 01:12:34;;;;;;;10.50;6.40;;;;;;;1.57;83.17;98701.82;127074;1312;108761;-76
2021/11/30 01:15:40;;;;;;;10.00;6.10;;;;;;;1.57;83.16;98702.71;127015;1310;108916;-76
2021/11/30 01:18:47;;;;;;;9.60;6.00;;;;;;;1.54;83.16;98705.02;127067;1310;108693;-76
2021/11/30 01:21:55;;;;;;;12.00;6.60;;;;;;;1.55;83.40;98704.59;127060;1307;108749;-75
2021/11/30 01:25:01;;;;;;;10.00;5.80;;;;;;;1.49;83.07;98698.27;126922;1312;108984;-76
2021/11/30 01:28:07;;;;;;;9.80;6.00;;;;;;;1.44;82.96;98701.41;127061;1307;108732;-76
2021/11/30 01:31:13;;;;;;;7.90;5.00;;;;;;;1.49;83.44;98699.88;127024;1312;108728;-76
2021/11/30 01:34:18;;;;;;;7.90;4.90;;;;;;;1.55;82.69;98704.30;127046;1313;108499;-75
2021/11/30 01:37:24;;;;;;;7.50;5.20;;;;;;;1.52;82.31;98711.67;126734;1306;108940;-76
2021/11/30 01:40:32;;;;;;;9.80;5.40;;;;;;;1.50;82.38;98713.16;126597;1312;108927;-76
2021/11/30 01:43:41;;;;;;;9.20;5.80;;;;;;;1.46;82.11;98718.40;126598;1311;108834;-75
2021/11/30 01:46:55;;;;;;;7.50;4.50;;;;;;;1.44;82.51;98720.52;126888;1306;109072;-76
2021/11/30 01:50:04;;;;;;;6.00;4.20;;;;;;;1.40;81.83;98719.27;126625;1306;108892;-76
2021/11/30 01:53:10;;;;;;;5.90;4.20;;;;;;;1.41;82.14;98724.48;126650;1308;108806;-76
2021/11/30 01:56:16;;;;;;;7.50;4.80;;;;;;;1.39;81.67;98727.42;126698;1306;108963;-76
2021/11/30 01:59:22;;;;;;;7.70;4.80;;;;;;;1.35;81.92;98731.59;126961;1306;108930;-78
2021/11/30 02:02:27;;;;;;;8.70;4.80;;;;;;;1.33;81.53;98734.92;126832;1306;108719;-79
2021/11/30 02:05:33;;;;;;;6.80;4.70;;;;;;;1.28;81.03;98737.13;126934;1312;109022;-77
2021/11/30 02:08:38;;;;;;;7.00;4.70;;;;;;;1.25;80.95;98739.14;126958;1312;107736;-76
2021/11/30 02:11:44;;;;;;;8.00;5.10;;;;;;;1.20;80.72;98750.56;126889;1306;108795;-77
2021/11/30 02:14:51;;;;;;;7.70;5.30;;;;;;;1.12;80.85;98755.04;127020;1313;109543;-75
2021/11/30 02:17:59;;;;;;;8.60;5.50;;;;;;;1.11;81.54;98755.52;126697;1312;108611;-78
2021/11/30 02:21:07;;;;;;;7.10;4.60;;;;;;;1.11;81.72;98755.15;126747;1307;108879;-77
2021/11/30 02:24:12;;;;;;;6.90;4.80;;;;;;;1.12;81.94;98754.34;127013;1307;108653;-77
2021/11/30 02:27:19;;;;;;;7.40;5.20;;;;;;;1.14;81.65;98753.81;127025;1306;108808;-77
2021/11/30 02:30:25;;;;;;;8.20;5.70;;;;;;;1.11;81.73;98756.77;127028;1306;108876;-78
2021/11/30 02:33:30;;;;;;;10.10;6.20;;;;;;;1.09;81.26;98758.65;126985;1308;108909;-77
2021/11/30 02:36:48;;;;;;;9.00;5.50;;;;;;;1.01;81.02;98762.35;126829;1307;107878;-77
2021/11/30 02:39:56;;;;;;;7.70;5.80;;;;;;;0.97;81.28;98763.33;126911;1312;108990;-77
2021/11/30 02:43:01;;;;;;;10.90;6.00;;;;;;;0.99;81.45;98759.36;126752;1306;108680;-79
2021/11/30 02:46:06;;;;;;;10.20;6.10;;;;;;;0.98;81.35;98759.23;126992;1312;107493;-78
2021/11/30 02:49:14;;;;;;;9.30;6.30;;;;;;;0.96;81.62;98760.43;127056;1306;109277;-77
2021/11/30 02:52:21;;;;;;;8.10;5.60;;;;;;;0.98;81.87;98765.05;126830;1306;108886;-77
2021/11/30 02:55:26;;;;;;;7.70;5.10;;;;;;;1.04;82.05;98767.74;126895;1311;108945;-77
2021/11/30 02:58:32;;;;;;;8.50;5.80;;;;;;;1.13;81.89;98772.70;126923;1306;108795;-77
2021/11/30 03:01:38;;;;;;;7.40;5.00;;;;;;;1.19;81.95;98773.44;126609;1306;109719;-74
2021/11/30 03:04:44;;;;;;;8.10;5.40;;;;;;;1.17;81.41;98775.82;126960;1313;108878;-74
2021/11/30 03:07:50;;;;;;;9.60;6.10;;;;;;;1.18;81.79;98774.36;126972;1306;108886;-73
2021/11/30 03:10:55;;;;;;;8.70;6.10;;;;;;;1.18;81.72;98773.48;126794;1312;108796;-74
2021/11/30 03:14:01;;;;;;;8.90;5.50;;;;;;;1.14;81.50;98777.45;126984;1306;108654;-76
2021/11/30 03:17:08;;;;;;;9.60;6.10;;;;;;;1.18;81.67;98776.83;126865;1306;108717;-75
2021/11/30 03:20:15;;;;;;;8.20;5.10;;;;;;;1.24;81.59;98779.33;126996;1309;108858;-76
2021/11/30 03:23:20;;;;;;;8.10;5.50;;;;;;;1.28;81.39;98779.65;126843;1308;108970;-78
2021/11/30 03:26:26;;;;;;;8.10;5.20;;;;;;;1.26;81.25;98779.31;126837;1312;108465;-76
2021/11/30 03:29:31;;;;;;;9.00;5.50;;;;;;;1.21;81.26;98778.88;126681;1306;108888;-75
2021/11/30 03:36:00;;;;;;;8.60;4.90;;;;;;;1.19;81.63;98776.75;126836;1306;108718;-76
2021/11/30 03:39:08;;;;;;;8.50;5.10;;;;;;;1.22;81.56;98776.46;126843;1306;107614;-77
2021/11/30 03:42:13;;;;;;;6.90;4.50;;;;;;;1.27;81.36;98775.16;126651;1307;108779;-75
2021/11/30 03:45:19;;;;;;;7.10;4.70;;;;;;;1.27;81.27;98773.31;126594;1306;108769;-77
2021/11/30 03:48:24;;;;;;;6.90;4.60;;;;;;;1.23;80.92;98780.32;126678;1306;282363;-78
2021/11/30 03:51:30;;;;;;;6.50;4.60;;;;;;;1.12;80.88;98781.66;126669;1306;108942;-77
2021/11/30 03:54:36;;;;;;;6.60;4.50;;;;;;;1.09;80.94;98781.59;126905;1306;108544;-73
2021/11/30 03:57:42;;;;;;;6.60;4.60;;;;;;;1.10;80.84;98786.96;126775;1306;108917;-75
2021/11/30 04:00:47;;;;;;;6.70;4.90;;;;;;;1.05;80.58;98789.64;126640;1313;108842;-76
2021/11/30 04:03:56;;;;;;;7.40;4.90;;;;;;;1.03;80.88;98786.73;126940;1307;108765;-77
2021/11/30 04:07:02;;;;;;;7.00;4.80;;;;;;;1.01;80.73;98788.23;126773;1307;108827;-77
2021/11/30 04:10:10;;;;;;;7.70;5.10;;;;;;;0.98;80.72;98788.14;127067;1306;108688;-76
2021/11/30 04:13:15;;;;;;;8.10;5.30;;;;;;;1.00;80.77;98787.11;127011;1306;107723;-77
2021/11/30 04:16:20;;;;;;;6.70;4.30;;;;;;;0.96;80.21;98790.20;127001;1306;108941;-78
2021/11/30 04:19:26;;;;;;;6.40;4.40;;;;;;;0.96;80.91;98790.36;126948;1309;109814;-77
2021/11/30 04:22:31;;;;;;;7.40;4.40;;;;;;;1.04;80.69;98795.88;126767;1306;108872;-76
2021/11/30 04:25:37;;;;;;;6.90;4.70;;;;;;;1.07;80.44;98798.45;126998;1309;108961;-77
2021/11/30 04:28:43;;;;;;;6.30;4.60;;;;;;;1.04;80.47;98795.83;127017;1306;107617;-77
2021/11/30 04:31:49;;;;;;;7.10;5.00;;;;;;;0.99;80.38;98798.17;126587;1311;108731;-76
2021/11/30 04:34:54;;;;;;;7.70;4.70;;;;;;;0.96;80.68;98797.19;126685;1306;108756;-78
2021/11/30 04:38:00;;;;;;;6.60;4.40;;;;;;;0.98;80.75;98793.39;126935;1306;109082;-77
2021/11/30 04:41:07;;;;;;;6.80;4.20;;;;;;;1.03;80.78;98790.52;126765;1307;108910;-77
2021/11/30 04:44:13;;;;;;;5.50;4.00;;;;;;;1.04;80.51;98788.91;126849;1306;108990;-76
2021/11/30 04:47:19;;;;;;;8.30;6.00;;;;;;;1.03;80.66;98788.11;126608;1306;108681;-77
2021/11/30 04:50:30;;;;;;;7.10;5.70;;;;;;;1.06;80.94;98787.08;126693;1306;108935;-77
2021/11/30 04:53:35;;;;;;;34.30;14.80;;;;;;;1.13;81.21;98782.33;126915;1306;108885;-77
2021/11/30 04:56:41;;;;;;;22.80;10.00;;;;;;;1.12;81.03;98780.94;126979;1312;108747;-77
2021/11/30 04:59:46;;;;;;;12.90;6.40;;;;;;;1.10;80.93;98776.43;126615;1306;108897;-77
2021/11/30 05:02:52;;;;;;;10.30;6.20;;;;;;;1.08;80.87;98781.00;126843;1306;108924;-76
2021/11/30 05:05:57;;;;;;;8.60;6.10;;;;;;;1.10;81.08;98782.08;126669;1305;107649;-78
2021/11/30 05:09:03;;;;;;;7.10;4.90;;;;;;;1.18;81.32;98779.80;126944;1306;108041;-76
2021/11/30 05:12:10;;;;;;;43.20;13.80;;;;;;;1.26;81.05;98784.43;126687;1306;108856;-77
2021/11/30 05:15:16;;;;;;;81.50;30.60;;;;;;;1.25;81.10;98783.77;126853;1306;108722;-77
2021/11/30 05:18:22;;;;;;;157.70;66.10;;;;;;;1.27;81.21;98784.63;126866;1306;108796;-78
2021/11/30 05:21:28;;;;;;;55.00;27.80;;;;;;;1.32;81.20;98778.77;126846;1306;108910;-77
2021/11/30 05:24:35;;;;;;;36.20;15.80;;;;;;;1.35;81.02;98776.08;126901;1307;108525;-77
2021/11/30 05:27:41;;;;;;;82.30;34.60;;;;;;;1.36;80.85;98774.80;127088;1307;108757;-77
2021/11/30 05:30:47;;;;;;;45.20;17.50;;;;;;;1.40;81.04;98780.18;126967;1306;108933;-78
2021/11/30 05:33:53;;;;;;;50.10;25.30;;;;;;;1.42;80.91;98776.34;126836;1307;109026;-78
2021/11/30 05:36:58;;;;;;;54.50;28.10;;;;;;;1.40;80.98;98775.52;126762;1306;108810;-77
2021/11/30 05:40:05;;;;;;;34.90;16.30;;;;;;;1.41;81.07;98775.58;126582;1306;109020;-77
2021/11/30 05:43:12;;;;;;;58.30;28.60;;;;;;;1.42;81.01;98777.95;126581;1306;108411;-77
2021/11/30 05:46:18;;;;;;;81.30;37.00;;;;;;;1.46;81.00;98777.77;126585;1312;108862;-76
2021/11/30 05:49:23;;;;;;;74.90;35.10;;;;;;;1.54;81.24;98773.55;126946;1307;107730;-76
2021/11/30 05:52:29;;;;;;;35.90;20.50;;;;;;;1.65;80.94;98771.29;126752;1306;109076;-75
2021/11/30 05:55:34;;;;;;;22.00;14.30;;;;;;;1.72;80.95;98770.79;126679;1307;108968;-75
2021/11/30 05:58:41;;;;;;;21.50;13.70;;;;;;;1.77;80.82;98771.80;126809;1306;108796;-76
2021/11/30 06:01:47;;;;;;;18.80;12.30;;;;;;;1.79;80.77;98775.64;127005;1307;106872;-76
2021/11/30 06:04:53;;;;;;;16.30;10.90;;;;;;;1.77;80.64;98781.77;126971;1307;108870;-75
2021/11/30 06:07:59;;;;;;;15.00;9.50;;;;;;;1.72;80.61;98775.52;126803;1306;108879;-76
2021/11/30 06:11:04;;;;;;;48.80;21.80;;;;;;;1.71;80.69;98779.17;126744;1307;108732;-76
2021/11/30 06:14:10;;;;;;;22.60;9.10;;;;;;;1.74;80.84;98777.11;126868;1306;108989;-75
2021/11/30 06:17:15;;;;;;;15.20;8.30;;;;;;;1.81;80.44;98776.17;126877;1306;108707;-76
2021/11/30 06:20:21;;;;;;;17.00;8.30;;;;;;;1.84;80.52;98772.19;126794;1309;108641;-76
2021/11/30 06:23:28;;;;;;;19.50;10.50;;;;;;;1.89;80.58;98769.33;126973;1306;108868;-76
2021/11/30 06:26:33;;;;;;;33.00;11.10;;;;;;;1.92;80.35;98773.59;126911;1306;108980;-76
2021/11/30 06:29:39;;;;;;;105.90;51.00;;;;;;;1.89;80.11;98776.47;126849;1306;108883;-76
2021/11/30 06:32:44;;;;;;;52.50;32.10;;;;;;;1.83;80.17;98773.88;126814;1308;106540;-76
2021/11/30 06:35:49;;;;;;;34.60;20.10;;;;;;;1.83;80.36;98773.02;126720;1310;108965;-76
2021/11/30 06:38:57;;;;;;;50.60;28.90;;;;;;;1.83;80.34;98770.41;126602;1309;108775;-75
2021/11/30 06:42:03;;;;;;;19.40;12.30;;;;;;;1.85;80.27;98775.63;126714;1309;108549;-76
2021/11/30 06:45:10;;;;;;;36.80;24.60;;;;;;;1.94;80.52;98780.27;126537;1312;108780;-76
2021/11/30 06:48:17;;;;;;;70.30;43.70;;;;;;;2.01;80.13;98776.52;126590;1306;106932;-75
2021/11/30 06:51:23;;;;;;;41.20;25.90;;;;;;;2.04;80.15;98774.86;126826;1306;108694;-76
2021/11/30 06:54:29;;;;;;;35.60;22.50;;;;;;;2.05;79.67;98771.80;126838;1306;108714;-76
2021/11/30 06:57:35;;;;;;;17.10;9.90;;;;;;;2.00;79.77;98768.25;126828;1309;109002;-76
2021/11/30 07:00:41;;;;;;;23.90;14.70;;;;;;;1.95;79.46;98768.65;127018;1309;108912;-75
2021/11/30 07:03:48;;;;;;;18.30;11.60;;;;;;;1.92;79.53;98770.48;126986;1307;108967;-74
2021/11/30 07:07:02;;;;;;;17.20;9.70;;;;;;;1.88;79.30;98767.35;127672;1309;107375;-76
2021/11/30 07:10:12;;;;;;;30.90;14.40;;;;;;;1.92;79.64;98769.10;126584;1308;108913;-76
2021/11/30 07:13:25;;;;;;;15.40;9.60;;;;;;;1.98;79.46;98768.58;126939;1309;108755;-77
2021/11/30 07:16:31;;;;;;;21.90;10.80;;;;;;;2.04;79.43;98770.11;126943;1309;108914;-77
2021/11/30 07:19:36;;;;;;;15.10;7.80;;;;;;;2.10;79.41;98762.75;126854;1309;108592;-76
2021/11/30 07:22:42;;;;;;;17.20;9.60;;;;;;;2.14;79.41;98759.64;126654;1309;109068;-76
2021/11/30 07:25:51;;;;;;;12.90;7.30;;;;;;;2.14;78.84;98758.91;126778;1310;108970;-76
2021/11/30 07:28:57;;;;;;;13.80;8.00;;;;;;;2.10;79.09;98755.59;126597;1309;109033;-76
2021/11/30 07:32:03;;;;;;;16.70;8.30;;;;;;;2.11;79.10;98752.67;126804;1309;108793;-72
2021/11/30 07:35:09;;;;;;;14.70;7.80;;;;;;;2.10;78.58;98750.65;126519;1310;108776;-76
2021/11/30 07:38:15;;;;;;;14.20;6.50;;;;;;;2.06;78.47;98745.73;126481;1309;108904;-76
2021/11/30 07:41:22;;;;;;;11.80;6.50;;;;;;;2.02;78.23;98742.80;126636;1309;108695;-77
2021/11/30 07:44:28;;;;;;;12.90;7.00;;;;;;;2.03;78.62;98742.02;126720;1309;108782;-77
2021/11/30 07:47:34;;;;;;;10.80;7.50;;;;;;;2.04;78.22;98734.94;126470;1313;106883;-76
2021/11/30 07:50:39;;;;;;;19.60;12.40;;;;;;;1.99;78.12;98727.98;126520;1309;107037;-76
2021/11/30 07:53:45;;;;;;;61.20;49.60;;;;;;;1.99;78.36;98723.46;126498;1309;108751;-76
2021/11/30 07:56:51;;;;;;;199.00;110.70;;;;;;;2.00;78.21;98710.67;126762;1309;108740;-77
2021/11/30 07:59:56;;;;;;;198.60;98.30;;;;;;;2.01;78.33;98695.39;126900;1306;108987;-77
2021/11/30 08:03:02;;;;;;;91.20;55.40;;;;;;;2.03;78.18;98696.55;126743;1312;106858;-76
2021/11/30 08:06:08;;;;;;;29.00;19.20;;;;;;;2.04;78.25;98692.09;127043;1306;108841;-76
2021/11/30 08:09:13;;;;;;;39.10;21.90;;;;;;;2.09;78.47;98687.77;126975;1306;108987;-76
2021/11/30 08:12:18;;;;;;;89.60;44.80;;;;;;;2.18;78.11;98684.83;126725;1306;108789;-76
2021/11/30 08:15:24;;;;;;;130.30;70.50;;;;;;;2.28;77.63;98681.20;126574;1306;108842;-76
2021/11/30 08:18:30;;;;;;;84.10;45.90;;;;;;;2.40;77.66;98672.90;126625;1306;106733;-76
2021/11/30 08:21:35;;;;;;;21.80;11.80;;;;;;;2.56;77.71;98668.77;126631;1306;108841;-76
2021/11/30 08:24:40;;;;;;;15.60;10.60;;;;;;;2.70;77.24;98663.04;126596;1306;108923;-75
2021/11/30 08:27:46;;;;;;;15.60;9.00;;;;;;;2.78;77.01;98652.52;126619;1306;109202;-76
2021/11/30 08:30:52;;;;;;;18.50;12.00;;;;;;;2.86;77.03;98650.55;126808;1307;108706;-76
2021/11/30 08:33:57;;;;;;;13.40;9.40;;;;;;;2.88;76.70;98647.25;126749;1307;108904;-75
2021/11/30 08:37:02;;;;;;;13.10;9.10;;;;;;;2.79;76.20;98646.45;126711;1306;108778;-76
2021/11/30 08:40:12;;;;;;;14.00;9.00;;;;;;;2.70;76.41;98642.05;126862;1309;108749;-76
2021/11/30 08:43:18;;;;;;;12.60;8.20;;;;;;;2.68;76.99;98632.88;126646;1309;106750;-76
2021/11/30 08:46:24;;;;;;;13.50;8.20;;;;;;;2.70;77.00;98630.74;126683;1309;108706;-77
2021/11/30 08:49:29;;;;;;;10.50;7.60;;;;;;;2.71;76.78;98623.48;126573;1312;108892;-77
2021/11/30 08:52:35;;;;;;;11.60;7.80;;;;;;;2.77;77.14;98619.28;126701;1309;108766;-77
2021/11/30 08:55:41;;;;;;;12.90;8.50;;;;;;;2.91;77.13;98614.48;126576;1310;108773;-77
2021/11/30 08:58:50;;;;;;;26.30;17.60;;;;;;;3.02;77.13;98608.48;126608;1309;108956;-76
2021/11/30 09:01:56;;;;;;;177.00;76.80;;;;;;;3.10;77.13;98603.48;126507;1310;108171;-75
2021/11/30 09:05:02;;;;;;;90.60;45.70;;;;;;;3.18;77.10;98593.97;126665;1309;108798;-76
2021/11/30 09:08:11;;;;;;;25.80;16.10;;;;;;;3.23;77.05;98585.92;126682;1309;108774;-76
2021/11/30 09:11:17;;;;;;;16.20;11.00;;;;;;;3.20;76.67;98583.98;126491;1310;106557;-76
2021/11/30 09:14:23;;;;;;;15.80;10.60;;;;;;;3.11;76.85;98573.00;126499;1309;107345;-76
2021/11/30 09:17:30;;;;;;;13.20;9.50;;;;;;;3.04;76.98;98567.16;126496;1309;109036;-76
2021/11/30 09:20:36;;;;;;;13.60;8.80;;;;;;;3.01;77.33;98559.41;126702;1306;108950;-76
2021/11/30 09:23:43;;;;;;;17.00;12.60;;;;;;;2.98;77.29;98557.44;126751;1309;109005;-76
2021/11/30 09:26:49;;;;;;;15.40;10.20;;;;;;;2.98;77.42;98547.10;126512;1309;108445;-77
2021/11/30 09:29:55;;;;;;;12.60;8.00;;;;;;;3.06;77.51;98539.23;126930;1310;108823;-77
2021/11/30 09:33:00;;;;;;;14.80;10.50;;;;;;;3.17;77.56;98527.84;126973;1309;108734;-76
2021/11/30 09:36:06;;;;;;;15.80;10.40;;;;;;;3.26;77.50;98516.90;127028;1309;108794;-76
2021/11/30 09:39:12;;;;;;;17.20;11.60;;;;;;;3.33;77.26;98506.83;126979;1307;108741;-76
2021/11/30 09:42:18;;;;;;;15.90;10.90;;;;;;;3.34;77.34;98497.02;126876;1309;108951;-75
2021/11/30 09:45:25;;;;;;;17.00;11.20;;;;;;;3.38;77.23;98491.67;126473;1309;108898;-76
2021/11/30 09:48:33;;;;;;;16.70;10.80;;;;;;;3.37;77.29;98484.22;126931;1309;109072;-76
2021/11/30 09:51:39;;;;;;;16.60;10.90;;;;;;;3.32;77.08;98473.30;127024;1312;108910;-76
2021/11/30 09:54:44;;;;;;;14.10;9.80;;;;;;;3.29;77.32;98469.18;127001;1309;108781;-76
2021/11/30 09:57:50;;;;;;;20.60;11.50;;;;;;;3.32;77.32;98459.05;126705;1309;108500;-75
2021/11/30 10:00:59;;;;;;;17.20;11.00;;;;;;;3.33;77.21;98451.59;126487;1309;108902;-76
2021/11/30 10:04:05;;;;;;;15.10;9.80;;;;;;;3.37;77.32;98448.08;126793;1309;108814;-76
2021/11/30 10:07:10;;;;;;;16.50;10.10;;;;;;;3.41;77.20;98439.60;126586;1309;108963;-76
2021/11/30 10:10:18;;;;;;;16.90;10.20;;;;;;;3.47;77.15;98435.11;126502;1309;106632;-76
2021/11/30 10:13:24;;;;;;;16.10;10.70;;;;;;;3.53;76.96;98426.59;126558;1310;108920;-76
2021/11/30 10:16:30;;;;;;;16.60;10.80;;;;;;;3.53;76.78;98419.39;126589;1309;108858;-76
2021/11/30 10:19:35;;;;;;;16.50;10.40;;;;;;;3.50;76.78;98411.59;126541;1310;108883;-76
2021/11/30 10:22:48;;;;;;;16.80;10.80;;;;;;;3.45;76.71;98404.30;126604;1310;108893;-76
2021/11/30 10:25:54;;;;;;;16.20;10.10;;;;;;;3.42;77.04;98395.88;126811;1309;108675;-76
2021/11/30 10:29:04;;;;;;;16.60;11.10;;;;;;;3.39;76.97;98386.99;126606;1309;109021;-77
2021/11/30 10:32:10;;;;;;;17.40;11.40;;;;;;;3.35;76.79;98380.02;126775;1309;109209;-77
2021/11/30 10:35:17;;;;;;;19.80;12.00;;;;;;;3.34;77.14;98371.14;126894;1308;108711;-77
2021/11/30 10:38:24;;;;;;;17.40;10.30;;;;;;;3.39;77.00;98360.52;126670;1309;108843;-77
2021/11/30 10:41:30;;;;;;;14.60;9.00;;;;;;;3.52;77.14;98353.23;126748;1309;108852;-76
2021/11/30 10:44:35;;;;;;;16.30;9.80;;;;;;;3.68;77.07;98338.20;126528;1309;107149;-77
2021/11/30 10:47:43;;;;;;;15.20;10.30;;;;;;;3.87;76.82;98328.38;126545;1309;109028;-77
2021/11/30 10:50:51;;;;;;;16.10;10.90;;;;;;;4.05;76.76;98321.82;126780;1309;109387;-77
2021/11/30 10:54:00;;;;;;;18.30;11.00;;;;;;;4.16;76.31;98311.10;126515;1309;109204;-77
2021/11/30 10:57:06;;;;;;;16.30;10.70;;;;;;;4.23;76.34;98301.59;126521;1310;108890;-77
2021/11/30 11:00:19;;;;;;;18.10;10.60;;;;;;;4.28;76.39;98283.88;126606;1309;108786;-77
2021/11/30 11:03:27;;;;;;;15.30;10.10;;;;;;;4.38;76.15;98274.36;126803;1310;108854;-77
2021/11/30 11:06:35;;;;;;;16.50;10.60;;;;;;;4.42;75.65;98263.20;126498;1309;108855;-77
2021/11/30 11:09:46;;;;;;;15.20;10.60;;;;;;;4.46;75.62;98247.80;126942;1307;108820;-77
2021/11/30 11:12:52;;;;;;;14.90;10.70;;;;;;;4.46;75.42;98239.82;126747;1307;109046;-77
2021/11/30 11:16:00;;;;;;;14.80;9.60;;;;;;;4.48;75.34;98228.59;126630;1310;108691;-77
2021/11/30 11:19:07;;;;;;;13.50;9.20;;;;;;;4.50;75.38;98221.44;126758;1307;108889;-77
2021/11/30 11:22:18;;;;;;;13.10;9.10;;;;;;;4.54;75.35;98211.89;126965;1310;109054;-77
2021/11/30 11:25:31;;;;;;;13.00;9.10;;;;;;;4.64;75.45;98207.08;126638;1306;108748;-76
2021/11/30 11:28:37;;;;;;;14.60;8.90;;;;;;;4.65;74.74;98190.62;126727;1307;108922;-77
2021/11/30 11:31:45;;;;;;;12.70;8.80;;;;;;;4.58;74.78;98185.73;126937;1306;109097;-76
2021/11/30 11:34:52;;;;;;;12.00;8.10;;;;;;;4.51;75.09;98174.81;127025;1306;107816;-77
2021/11/30 11:37:59;;;;;;;13.30;8.40;;;;;;;4.45;75.04;98167.79;127044;1306;106539;-77
2021/11/30 11:41:06;;;;;;;15.00;10.10;;;;;;;4.42;75.20;98155.98;127083;1306;108899;-77
2021/11/30 11:44:12;;;;;;;13.60;9.20;;;;;;;4.35;75.00;98144.22;126642;1309;108793;-77
2021/11/30 11:47:21;;;;;;;17.70;10.30;;;;;;;4.30;74.99;98131.52;126403;1312;153687;-77
2021/11/30 11:50:27;;;;;;;15.60;10.20;;;;;;;4.25;74.86;98119.71;126506;1309;109001;-76
2021/11/30 11:53:35;;;;;;;16.40;11.00;;;;;;;4.18;74.93;98113.98;126489;1309;109074;-77
2021/11/30 11:56:40;;;;;;;15.00;9.80;;;;;;;4.09;75.04;98107.00;126512;1312;108716;-77
2021/11/30 11:59:47;;;;;;;15.10;9.90;;;;;;;4.02;74.87;98094.04;126460;1307;108885;-77
2021/11/30 12:02:58;;;;;;;20.90;12.50;;;;;;;3.95;74.96;98086.42;126838;1313;107716;-77
2021/11/30 12:06:17;;;;;;;14.10;9.00;;;;;;;3.90;74.92;98074.08;126565;1309;109021;-77
2021/11/30 12:09:27;;;;;;;35.90;20.20;;;;;;;3.85;74.58;98058.91;126529;1309;108951;-77
2021/11/30 12:12:34;;;;;;;18.40;11.20;;;;;;;3.77;74.43;98052.23;126528;1312;108974;-77
2021/11/30 12:15:59;;;;;;;19.00;12.00;;;;;;;3.71;74.74;98042.80;126538;1309;108737;-77
2021/11/30 12:19:28;;;;;;;20.40;12.50;;;;;;;3.66;74.88;98038.09;126493;1310;108888;-77
2021/11/30 12:22:50;;;;;;;17.40;10.70;;;;;;;3.61;74.90;98026.88;126494;1309;108727;-77
2021/11/30 12:25:56;;;;;;;27.10;16.40;;;;;;;3.57;74.74;98015.59;126562;1309;108217;-77
2021/11/30 12:29:05;;;;;;;38.50;21.50;;;;;;;3.50;74.62;98014.64;126458;1309;108796;-77
2021/11/30 12:32:22;;;;;;;35.30;19.40;;;;;;;3.45;74.89;98001.34;126563;1306;108918;-77
2021/11/30 12:35:48;;;;;;;46.80;25.20;;;;;;;3.40;74.81;97992.36;126558;1313;108448;-77
2021/11/30 12:38:58;;;;;;;15.20;10.10;;;;;;;3.40;75.05;97973.17;126497;1309;108867;-77
2021/11/30 12:42:04;;;;;;;52.30;28.20;;;;;;;3.48;74.87;97966.91;126495;1310;108498;-77
2021/11/30 12:45:12;;;;;;;36.50;20.40;;;;;;;3.53;74.51;97964.55;126472;1309;109020;-76
2021/11/30 12:48:23;;;;;;;23.90;14.60;;;;;;;3.56;74.42;97951.33;126512;1309;109033;-77
2021/11/30 12:51:34;;;;;;;31.10;18.40;;;;;;;3.53;74.34;97944.02;126732;1310;108712;-76
2021/11/30 12:54:41;;;;;;;21.50;13.90;;;;;;;3.49;74.68;97942.36;126594;1306;108779;-77
2021/11/30 12:57:47;;;;;;;34.30;21.70;;;;;;;3.41;74.94;97935.60;127364;1307;108708;-77
2021/11/30 13:01:14;;;;;;;20.40;13.70;;;;;;;3.32;75.06;97925.72;128324;1306;107771;-75
2021/11/30 13:04:33;;;;;;;19.50;11.90;;;;;;;3.19;75.34;97915.89;126585;1306;108799;-76
2021/11/30 13:08:10;;;;;;;19.00;11.40;;;;;;;3.10;75.54;97905.78;126629;1306;108716;-76
2021/11/30 13:11:16;;;;;;;16.60;10.50;;;;;;;3.13;75.76;97893.49;126497;1306;108951;-76
2021/11/30 13:14:25;;;;;;;15.50;9.90;;;;;;;3.14;75.74;97883.51;126502;1306;109004;-77
2021/11/30 13:17:34;;;;;;;17.00;11.50;;;;;;;3.15;75.84;97875.73;126592;1309;107747;-77
2021/11/30 13:20:41;;;;;;;16.50;11.30;;;;;;;3.13;75.81;97865.54;126565;1309;108851;-77
2021/11/30 13:23:47;;;;;;;17.90;12.00;;;;;;;3.09;75.75;97861.70;126656;1307;108696;-76
2021/11/30 13:26:52;;;;;;;15.90;11.00;;;;;;;3.05;75.90;97851.14;126581;1307;108639;-76
2021/11/30 13:30:00;;;;;;;15.50;11.00;;;;;;;2.99;75.92;97843.86;126552;1306;108939;-76
2021/11/30 13:33:12;;;;;;;17.80;11.70;;;;;;;2.86;76.04;97828.91;126665;1306;108708;-77
2021/11/30 13:36:18;;;;;;;18.20;11.80;;;;;;;2.77;76.25;97826.23;126708;1309;108975;-76
2021/11/30 13:39:23;;;;;;;13.40;9.20;;;;;;;2.72;76.33;97822.11;126815;1306;107820;-77
2021/11/30 13:42:29;;;;;;;16.50;10.90;;;;;;;2.71;76.44;97812.04;126879;1307;107024;-77
2021/11/30 13:45:36;;;;;;;17.90;11.00;;;;;;;2.72;76.42;97803.85;126696;1306;108688;-77
2021/11/30 13:48:44;;;;;;;17.50;10.90;;;;;;;2.68;76.56;97791.16;126903;1307;108776;-77
2021/11/30 13:51:51;;;;;;;18.40;11.20;;;;;;;2.64;76.57;97778.04;126870;1307;108819;-77
2021/11/30 13:55:02;;;;;;;18.50;12.10;;;;;;;2.62;76.64;97774.05;127075;1306;108966;-77
2021/11/30 13:58:43;;;;;;;20.50;12.40;;;;;;;2.50;76.71;97766.18;126651;1306;109040;-77
2021/11/30 14:02:15;;;;;;;16.30;10.50;;;;;;;2.42;76.72;97763.23;126587;1312;107779;-76
2021/11/30 14:05:20;;;;;;;14.50;9.50;;;;;;;2.41;76.80;97747.15;126544;1306;108822;-77
2021/11/30 14:08:31;;;;;;;14.10;9.50;;;;;;;2.43;76.95;97742.55;126648;1306;108925;-77
2021/11/30 14:11:39;;;;;;;16.60;10.30;;;;;;;2.44;76.95;97734.23;126754;1306;108913;-77
2021/11/30 14:14:47;;;;;;;15.70;9.40;;;;;;;2.45;76.88;97722.17;127014;1309;108874;-77
2021/11/30 14:18:06;;;;;;;14.80;10.10;;;;;;;2.48;76.98;97714.55;126742;1306;108814;-76
2021/11/30 14:21:16;;;;;;;14.50;9.50;;;;;;;2.42;77.01;97701.66;126752;1306;109431;-77
2021/11/30 14:24:22;;;;;;;16.90;9.80;;;;;;;2.35;77.03;97699.19;127201;1306;107693;-77